KAMA/AMA METAR and TAF weather

Enter ICAO airport designator
Station Type Date Time Source
KAMA METAR 2022/05/24 11:53 UTC NOAA

KAMA 241153Z 04006KT 1/4SM OVC002 11/11 A2983 RMK AO2 SFC VIS 8 SLP075 60062 70115 T01110111 10133 20111 53000


Station Type Date Time Source
KAMA Decoded METAR 2022/05/24 11:53 UTC NOAA

AMARILLO INTERNATIONAL AIRPORT, TX, United States (KAMA) 35-13N 101-43W 1093M
May 24, 2022 - 07:53 AM EDT / 2022.05.24 1153 UTC
Wind: from the NE (040 degrees) at 7 MPH (6 KT):0
Visibility: 1/4 mile(s):0
Sky conditions: overcast
Temperature: 52.0 F (11.1 C)
Dew Point: 52.0 F (11.1 C)
Relative Humidity: 100%
Pressure (altimeter): 29.83 in. Hg (1010 hPa)
Pressure tendency: 0.00 inches (0.0 hPa) higher than three hours ago
ob: KAMA 241153Z 04006KT 1/4SM OVC002 11/11 A2983 RMK AO2 SFC VIS 8 SLP075 60062 70115 T01110111 10133 20111 53000
cycle: 12

Station Type Date Time Source
KAMA TAF 2022/05/24 12:22 UTC NOAA

TAF KAMA 241120Z 2412/2512 36011KT 6SM BR VCSH BKN004
FM241800 34014KT 6SM BR VCSH BKN007
FM242000 34018G28KT P6SM BKN015
FM251100 33016G26KT P6SM SCT050

Example: see airport list